Time;durP1;ratioP1;P1;durP2;ratioP2;P2;SDS_P1;SDS_P2;PMS_P1;PMS_P2;Temp;Humidity;BMP_temperature;BMP_pressure;BME280_temperature;BME280_humidity;BME280_pressure;Samples;Min_cycle;Max_cycle;Signal;HPM_P1;HPM_P2
2022/09/06 00:08:22;;;;;;;0.20;0.00;;;25.10;99.90;;;;;;26045571;22;20207;-71
2022/09/06 00:18:28;;;;;;;0.20;0.00;;;25.10;99.90;;;;;;26045878;22;20167;-71
2022/09/06 00:28:31;;;;;;;0.20;0.00;;;25.20;99.90;;;;;;26045796;22;20180;-70
2022/09/06 00:38:37;;;;;;;0.20;0.10;;;25.20;99.90;;;;;;26045151;22;20179;-72
2022/09/06 00:48:42;;;;;;;0.20;0.00;;;25.00;99.90;;;;;;26019288;22;20204;-72
2022/09/06 00:58:49;;;;;;;0.20;0.00;;;25.00;99.90;;;;;;26019230;22;20160;-72
2022/09/06 01:09:05;;;;;;;0.20;0.10;;;24.90;99.90;;;;;;26043283;22;20188;-72
2022/09/06 01:19:46;;;;;;;0.20;0.00;;;24.90;99.90;;;;;;26043681;22;20171;-72
2022/09/06 01:29:56;;;;;;;0.20;0.00;;;24.70;99.90;;;;;;25986254;22;20253;-72
2022/09/06 01:40:00;;;;;;;0.20;0.00;;;24.70;99.90;;;;;;26041651;22;20160;-72
2022/09/06 01:50:28;;;;;;;0.20;0.00;;;24.70;99.90;;;;;;26042188;22;20204;-72
2022/09/06 02:00:35;;;;;;;0.20;0.00;;;24.60;99.90;;;;;;26036044;22;20168;-71
2022/09/06 02:10:46;;;;;;;0.20;0.00;;;24.50;99.90;;;;;;26014067;22;20184;-72
2022/09/06 02:20:53;;;;;;;0.20;0.00;;;24.50;99.90;;;;;;26023698;22;20165;-72
2022/09/06 02:31:03;;;;;;;0.20;0.00;;;24.70;99.90;;;;;;26047080;22;20187;-72
2022/09/06 02:41:08;;;;;;;0.20;0.00;;;24.90;99.90;;;;;;26050663;22;20167;-72
2022/09/06 02:51:13;;;;;;;0.20;0.00;;;24.90;99.90;;;;;;26048601;22;20196;-72
2022/09/06 03:01:17;;;;;;;0.20;0.00;;;24.80;99.90;;;;;;26049099;22;20164;-71
2022/09/06 03:11:22;;;;;;;0.20;0.10;;;24.70;99.90;;;;;;26021205;22;20195;-71
2022/09/06 03:21:26;;;;;;;0.20;0.00;;;24.70;99.90;;;;;;26022048;22;20171;-71
2022/09/06 03:31:31;;;;;;;0.20;0.00;;;24.60;99.90;;;;;;26048294;22;20180;-71
2022/09/06 03:41:35;;;;;;;0.20;0.00;;;24.50;99.90;;;;;;26046995;22;20171;-72
2022/09/06 03:51:40;;;;;;;0.20;0.08;;;24.50;99.90;;;;;;26047657;22;20192;-72
2022/09/06 04:01:44;;;;;;;0.20;0.00;;;24.60;99.90;;;;;;26045784;22;20171;-72
2022/09/06 04:11:49;;;;;;;0.20;0.00;;;24.60;99.90;;;;;;26046468;22;20195;-71
2022/09/06 04:21:53;;;;;;;0.20;0.00;;;24.50;99.90;;;;;;26017580;22;20156;-71
2022/09/06 04:31:58;;;;;;;0.20;0.00;;;24.40;99.90;;;;;;26045365;22;20187;-72
2022/09/06 04:42:02;;;;;;;0.20;0.00;;;24.40;99.90;;;;;;26044536;22;20160;-72
2022/09/06 04:52:08;;;;;;;0.20;0.00;;;24.40;99.90;;;;;;26044332;22;20200;-72
2022/09/06 05:02:12;;;;;;;0.20;0.05;;;24.50;99.90;;;;;;26044867;22;20160;-71
2022/09/06 05:12:17;;;;;;;0.20;0.00;;;24.40;99.90;;;;;;26043721;22;20199;-72
2022/09/06 05:22:21;;;;;;;0.20;0.00;;;24.30;99.90;;;;;;26043047;22;20171;-72
2022/09/06 05:32:26;;;;;;;0.20;0.00;;;24.30;99.90;;;;;;26043024;22;20176;-72
2022/09/06 05:42:30;;;;;;;0.20;0.10;;;24.20;99.90;;;;;;26013146;22;20174;-71
2022/09/06 05:52:35;;;;;;;0.20;0.00;;;24.20;99.90;;;;;;26039697;22;20206;-70
2022/09/06 06:02:39;;;;;;;0.20;0.00;;;24.40;99.90;;;;;;26040515;22;20229;-71
2022/09/06 06:12:45;;;;;;;0.20;0.00;;;24.50;99.90;;;;;;26010563;22;20195;-73
2022/09/06 06:22:48;;;;;;;0.20;0.00;;;24.70;99.90;;;;;;26038695;22;20160;-71
2022/09/06 06:32:54;;;;;;;0.20;0.00;;;24.90;99.90;;;;;;26035351;22;20179;-71
2022/09/06 06:42:57;;;;;;;0.20;0.00;;;25.40;99.90;;;;;;26037899;22;20171;-72
2022/09/06 06:53:02;;;;;;;0.20;0.00;;;25.90;99.90;;;;;;26034911;22;20202;-70
2022/09/06 07:03:06;;;;;;;0.20;0.00;;;26.40;99.90;;;;;;26040797;22;20160;-70
2022/09/06 07:13:12;;;;;;;0.20;0.00;;;26.80;99.90;;;;;;26012695;22;20184;-71
2022/09/06 07:23:16;;;;;;;0.20;0.00;;;27.00;99.90;;;;;;26017166;22;20178;-71
2022/09/06 07:33:41;;;;;;;0.20;0.00;;;27.20;99.90;;;;;;26044890;22;20192;-71
2022/09/06 07:43:46;;;;;;;0.20;0.00;;;27.20;99.90;;;;;;26018060;22;20156;-71
2022/09/06 07:53:54;;;;;;;0.20;0.00;;;27.50;99.90;;;;;;26043602;22;20192;-71
2022/09/06 08:04:17;;;;;;;0.20;0.00;;;27.80;99.90;;;;;;26042109;22;20191;-72
2022/09/06 08:14:23;;;;;;;0.20;0.00;;;27.80;99.90;;;;;;26043550;22;20187;-71
2022/09/06 08:24:27;;;;;;;0.20;0.00;;;28.30;99.90;;;;;;26015039;22;20171;-72
2022/09/06 08:34:32;;;;;;;0.20;0.00;;;28.40;99.90;;;;;;26040246;22;20179;-72
2022/09/06 08:44:39;;;;;;;0.20;0.00;;;28.80;99.90;;;;;;26040102;22;20145;-72
2022/09/06 08:55:16;;;;;;;0.20;0.00;;;29.30;99.90;;;;;;26041587;22;21056;-71
2022/09/06 09:05:25;;;;;;;0.20;0.00;;;29.30;99.90;;;;;;26042398;22;20267;-71
2022/09/06 09:15:31;;;;;;;0.20;0.00;;;29.60;99.90;;;;;;26010756;22;20239;-71
2022/09/06 09:25:40;;;;;;;0.20;0.00;;;29.30;99.90;;;;;;26038836;22;20160;-71
2022/09/06 09:35:45;;;;;;;0.20;0.00;;;29.10;99.90;;;;;;26015171;22;20320;-71
2022/09/06 09:46:28;;;;;;;0.20;0.00;;;28.70;99.90;;;;;;26039277;22;20160;-70
2022/09/06 09:56:42;;;;;;;0.20;0.00;;;29.00;99.90;;;;;;26039588;22;20188;-72
2022/09/06 10:06:46;;;;;;;0.20;0.00;;;29.30;99.90;;;;;;26010229;22;20619;-70
2022/09/06 10:17:19;;;;;;;0.20;0.00;;;30.00;99.90;;;;;;26038496;22;20164;-71
2022/09/06 10:27:26;;;;;;;0.20;0.00;;;30.30;99.90;;;;;;26036383;22;20176;-69
2022/09/06 10:37:56;;;;;;;0.20;0.00;;;30.00;99.90;;;;;;26041218;22;20170;-72
2022/09/06 10:48:04;;;;;;;0.20;0.00;;;30.50;99.90;;;;;;26047277;22;20207;-72
2022/09/06 10:58:11;;;;;;;0.20;0.00;;;30.90;99.90;;;;;;26044346;22;20172;-72
2022/09/06 11:08:23;;;;;;;0.20;0.00;;;31.10;99.90;;;;;;26019379;22;20199;-72
2022/09/06 11:18:54;;;;;;;0.20;0.00;;;31.60;99.90;;;;;;26044105;22;20172;-72
2022/09/06 11:29:00;;;;;;;0.20;0.00;;;31.80;99.90;;;;;;26045338;22;20171;-72
2022/09/06 11:39:09;;;;;;;0.20;0.00;;;32.40;99.90;;;;;;26018001;22;20184;-73
2022/09/06 11:49:29;;;;;;;0.20;0.00;;;33.20;99.90;;;;;;26044081;22;20211;-72
2022/09/06 11:59:41;;;;;;;0.20;0.00;;;33.30;99.90;;;;;;26015862;22;20171;-70
2022/09/06 12:09:46;;;;;;;0.20;0.00;;;33.40;99.90;;;;;;26043731;22;20190;-73
2022/09/06 12:19:53;;;;;;;0.20;0.00;;;34.10;99.90;;;;;;26015630;22;21109;-73
2022/09/06 12:30:00;;;;;;;0.20;0.00;;;34.30;99.90;;;;;;26014599;22;20175;-71
2022/09/06 12:40:07;;;;;;;0.20;0.00;;;34.20;99.90;;;;;;26043504;22;20148;-72
2022/09/06 12:50:17;;;;;;;0.20;0.00;;;34.00;99.90;;;;;;26041796;22;20214;-71
2022/09/06 13:00:24;;;;;;;0.20;0.00;;;34.80;99.90;;;;;;26039406;22;20179;-72
2022/09/06 13:10:28;;;;;;;0.20;0.00;;;34.70;99.90;;;;;;26042391;22;20192;-71
2022/09/06 13:20:34;;;;;;;0.20;0.00;;;34.70;99.90;;;;;;26040282;22;20176;-73
2022/09/06 13:30:41;;;;;;;0.20;0.00;;;35.40;99.90;;;;;;26040244;22;20199;-72
2022/09/06 13:40:53;;;;;;;0.20;0.00;;;35.40;99.90;;;;;;26039373;22;20148;-72
2022/09/06 13:51:18;;;;;;;0.20;0.00;;;35.80;99.90;;;;;;26009722;22;20259;-71
2022/09/06 14:01:23;;;;;;;0.20;0.00;;;35.70;99.90;;;;;;26036508;22;20239;-72
2022/09/06 14:11:27;;;;;;;0.20;0.00;;;36.50;99.90;;;;;;26011026;22;20184;-72
2022/09/06 14:21:34;;;;;;;0.20;0.00;;;37.30;99.90;;;;;;26035605;22;20192;-73
2022/09/06 14:31:38;;;;;;;0.20;0.00;;;36.70;99.90;;;;;;26008843;22;20199;-71
2022/09/06 14:41:44;;;;;;;0.20;0.00;;;36.90;99.90;;;;;;26037306;22;20174;-71
2022/09/06 14:51:47;;;;;;;0.20;0.00;;;37.50;99.90;;;;;;26035935;22;20281;-72
2022/09/06 15:01:53;;;;;;;0.20;0.00;;;37.80;99.90;;;;;;26010991;22;20165;-71
2022/09/06 15:11:57;;;;;;;0.20;0.00;;;36.30;99.90;;;;;;26005963;22;20190;-72
2022/09/06 15:22:02;;;;;;;0.20;0.00;;;34.70;99.90;;;;;;26037821;22;20170;-71
2022/09/06 15:32:06;;;;;;;0.20;0.00;;;34.70;99.90;;;;;;26041930;22;20184;-71
2022/09/06 15:42:12;;;;;;;0.20;0.00;;;33.50;99.90;;;;;;26041254;22;20160;-72
2022/09/06 15:52:15;;;;;;;0.20;0.00;;;31.50;99.90;;;;;;26041552;22;20200;-71
2022/09/06 16:02:24;;;;;;;0.20;0.00;;;30.40;99.90;;;;;;26041681;22;20168;-71
2022/09/06 16:12:28;;;;;;;0.20;0.00;;;30.00;99.90;;;;;;26041183;22;20323;-72
2022/09/06 16:22:34;;;;;;;0.20;0.00;;;30.00;99.90;;;;;;26010575;22;20721;-73
2022/09/06 16:32:37;;;;;;;0.20;0.00;;;29.50;99.90;;;;;;26040513;22;20199;-72
2022/09/06 16:42:43;;;;;;;0.20;0.00;;;29.50;99.90;;;;;;26037935;22;20167;-73
2022/09/06 16:52:46;;;;;;;0.20;0.00;;;29.20;99.90;;;;;;26010669;22;20211;-71
2022/09/06 17:02:52;;;;;;;0.20;0.00;;;29.20;99.90;;;;;;26039567;22;20161;-72
2022/09/06 17:12:56;;;;;;;0.20;0.00;;;29.00;99.90;;;;;;26038865;22;20188;-71
2022/09/06 17:23:01;;;;;;;0.20;0.00;;;28.90;99.90;;;;;;26011013;22;20171;-71
2022/09/06 17:33:05;;;;;;;0.20;0.00;;;29.10;99.90;;;;;;26010472;22;20180;-71
2022/09/06 17:43:10;;;;;;;0.20;0.00;;;29.00;99.90;;;;;;26035590;22;20188;-70
2022/09/06 17:53:14;;;;;;;0.20;0.00;;;28.30;99.90;;;;;;26011317;22;20203;-72
2022/09/06 18:03:19;;;;;;;0.20;0.00;;;28.10;99.90;;;;;;26009217;22;20227;-71
2022/09/06 18:13:23;;;;;;;0.20;0.00;;;27.90;99.90;;;;;;26007111;22;20198;-72
2022/09/06 18:23:30;;;;;;;0.20;0.00;;;27.80;99.90;;;;;;26037286;22;20164;-72
2022/09/06 18:33:35;;;;;;;0.20;0.00;;;27.70;99.90;;;;;;26038189;22;20191;-71
2022/09/06 18:43:41;;;;;;;0.20;0.00;;;27.70;99.90;;;;;;26037794;22;20160;-70
2022/09/06 18:53:45;;;;;;;0.20;0.00;;;27.70;99.90;;;;;;26036034;22;20203;-71
2022/09/06 19:03:50;;;;;;;0.20;0.00;;;27.80;99.90;;;;;;26046072;22;20165;-72
2022/09/06 19:13:55;;;;;;;0.20;0.00;;;27.60;99.90;;;;;;26045546;22;20195;-70
2022/09/06 19:24:02;;;;;;;0.20;0.00;;;27.20;99.90;;;;;;26047617;22;20171;-71
2022/09/06 19:34:07;;;;;;;0.20;0.00;;;26.90;99.90;;;;;;26045026;22;20224;-71
2022/09/06 19:44:12;;;;;;;0.20;0.00;;;26.40;99.90;;;;;;26044898;22;20165;-71
2022/09/06 19:54:17;;;;;;;0.20;0.00;;;26.30;99.90;;;;;;26044790;22;20192;-72
2022/09/06 20:04:22;;;;;;;0.20;0.00;;;26.00;99.90;;;;;;26044811;22;20195;-71
2022/09/06 20:14:26;;;;;;;0.20;0.00;;;25.70;99.90;;;;;;25992974;22;20199;-71
2022/09/06 20:24:31;;;;;;;0.20;0.00;;;25.30;99.90;;;;;;26041644;22;20157;-71
2022/09/06 20:34:35;;;;;;;0.20;0.00;;;25.10;99.90;;;;;;26017151;22;20176;-71
2022/09/06 20:44:40;;;;;;;0.20;0.10;;;25.00;99.90;;;;;;26043331;22;20168;-72
2022/09/06 20:54:44;;;;;;;0.20;0.00;;;24.90;99.90;;;;;;26015528;22;20211;-72
2022/09/06 21:04:49;;;;;;;0.20;0.00;;;24.70;99.90;;;;;;26016130;22;20347;-72
2022/09/06 21:14:53;;;;;;;0.20;0.10;;;24.30;99.90;;;;;;25991029;22;20180;-71
2022/09/06 21:24:59;;;;;;;0.20;0.00;;;24.40;99.90;;;;;;26012962;22;20164;-72
2022/09/06 21:35:02;;;;;;;0.20;0.00;;;24.30;99.90;;;;;;26042349;22;20184;-71
2022/09/06 21:45:09;;;;;;;0.20;0.00;;;24.20;99.90;;;;;;26015242;22;20156;-71
2022/09/06 21:55:12;;;;;;;0.20;0.00;;;24.00;99.90;;;;;;26041802;22;20214;-71
2022/09/06 22:05:19;;;;;;;0.20;0.00;;;24.00;99.90;;;;;;26014633;22;20204;-71
2022/09/06 22:15:23;;;;;;;0.20;0.00;;;23.90;99.90;;;;;;25987851;22;20179;-72
2022/09/06 22:25:28;;;;;;;0.20;0.00;;;24.00;99.90;;;;;;26017373;22;20172;-72
2022/09/06 22:35:32;;;;;;;0.20;0.00;;;23.90;99.90;;;;;;26046106;22;20186;-73
2022/09/06 22:45:37;;;;;;;0.20;0.10;;;23.70;99.90;;;;;;26022574;22;20164;-72
2022/09/06 22:55:47;;;;;;;0.20;0.00;;;23.50;99.90;;;;;;26048966;22;20233;-72
2022/09/06 23:05:52;;;;;;;0.20;0.00;;;23.50;99.90;;;;;;26050087;22;20837;-72
2022/09/06 23:16:02;;;;;;;0.20;0.00;;;23.60;99.90;;;;;;26023697;22;20183;-72
2022/09/06 23:26:11;;;;;;;0.20;0.00;;;23.40;99.90;;;;;;26021919;22;20194;-73
2022/09/06 23:36:15;;;;;;;0.20;0.00;;;23.40;99.90;;;;;;26048847;22;20187;-72
2022/09/06 23:46:20;;;;;;;0.20;0.00;;;23.30;99.90;;;;;;26021715;22;20172;-72
2022/09/06 23:56:24;;;;;;;0.20;0.00;;;23.20;99.90;;;;;;25895048;23;20209;-71
